createdAt,value
2019-03-19T00:00:06.709Z,27.45
2019-03-19T00:02:43.043Z,27.87
2019-03-19T00:05:17.924Z,27.40
2019-03-19T00:07:52.752Z,27.53
2019-03-19T00:10:27.481Z,27.63
2019-03-19T00:13:02.462Z,27.37
2019-03-19T00:15:37.202Z,27.77
2019-03-19T00:18:12.034Z,27.10
2019-03-19T00:20:46.888Z,27.07
2019-03-19T00:23:21.612Z,27.40
2019-03-19T00:25:56.342Z,26.80
2019-03-19T00:28:31.095Z,27.97
2019-03-19T00:31:05.903Z,27.47
2019-03-19T00:33:40.718Z,27.20
2019-03-19T00:36:17.392Z,27.20
2019-03-19T00:38:52.055Z,27.10
2019-03-19T00:41:27.871Z,26.97
2019-03-19T00:44:02.595Z,27.17
2019-03-19T00:46:37.360Z,26.77
2019-03-19T00:49:12.080Z,27.20
2019-03-19T00:51:46.910Z,27.57
2019-03-19T00:54:21.644Z,27.10
2019-03-19T00:56:56.383Z,27.00
2019-03-19T00:59:31.214Z,27.67
2019-03-19T01:02:05.932Z,27.33
2019-03-19T01:04:40.810Z,27.33
2019-03-19T01:07:15.598Z,27.17
2019-03-19T01:09:50.338Z,27.47
2019-03-19T01:12:25.047Z,27.10
2019-03-19T01:14:59.871Z,26.90
2019-03-19T01:17:34.688Z,26.83
2019-03-19T01:20:11.018Z,26.93
2019-03-19T01:22:45.815Z,27.23
2019-03-19T01:25:20.630Z,27.47
2019-03-19T01:27:55.542Z,27.67
2019-03-19T01:30:30.272Z,27.23
2019-03-19T01:33:05.156Z,27.40
2019-03-19T01:35:39.868Z,27.67
2019-03-19T01:38:14.684Z,27.43
2019-03-19T01:40:49.490Z,27.13
2019-03-19T01:43:24.314Z,27.37
2019-03-19T01:46:02.128Z,27.43
2019-03-19T01:48:36.855Z,26.97
2019-03-19T01:51:11.571Z,27.60
2019-03-19T01:53:46.316Z,27.90
2019-03-19T01:56:21.035Z,27.50
2019-03-19T01:58:55.778Z,27.70
2019-03-19T02:01:30.512Z,27.37
2019-03-19T02:04:05.313Z,27.67
2019-03-19T02:06:40.056Z,27.07
2019-03-19T02:09:14.848Z,27.37
2019-03-19T02:11:49.663Z,27.23
2019-03-19T02:14:24.391Z,27.80
2019-03-19T02:16:59.171Z,27.10
2019-03-19T02:19:36.943Z,27.23
2019-03-19T02:22:11.644Z,29.60
2019-03-19T02:24:46.413Z,29.17
2019-03-19T02:27:21.147Z,29.33
2019-03-19T02:29:55.842Z,30.10
2019-03-19T02:32:30.545Z,29.43
2019-03-19T02:35:10.103Z,29.80
2019-03-19T02:37:44.815Z,29.20
2019-03-19T02:40:19.619Z,29.40
2019-03-19T02:42:54.824Z,28.63
2019-03-19T02:45:29.529Z,29.57
2019-03-19T02:48:04.418Z,29.87
2019-03-19T02:50:39.143Z,29.90
2019-03-19T02:53:16.919Z,29.77
2019-03-19T02:55:52.619Z,28.87
2019-03-19T02:58:27.334Z,29.60
2019-03-19T03:01:02.674Z,30.07
2019-03-19T03:03:37.468Z,29.90
2019-03-19T03:06:12.202Z,29.33
2019-03-19T03:08:46.924Z,29.47
2019-03-19T03:11:21.804Z,29.70
2019-03-19T03:13:56.586Z,29.37
2019-03-19T03:16:31.424Z,31.03
2019-03-19T03:19:06.233Z,29.73
2019-03-19T03:21:40.994Z,29.53
2019-03-19T03:24:15.731Z,29.70
2019-03-19T03:26:50.651Z,29.20
2019-03-19T03:29:28.624Z,29.67
2019-03-19T03:32:03.472Z,30.27
2019-03-19T03:34:38.329Z,29.50
2019-03-19T03:37:13.116Z,29.40
2019-03-19T03:39:47.860Z,29.30
2019-03-19T03:42:22.704Z,29.30
2019-03-19T03:44:57.574Z,29.47
2019-03-19T03:47:32.498Z,29.27
2019-03-19T03:50:07.920Z,29.37
2019-03-19T03:52:42.827Z,29.00
2019-03-19T03:55:17.715Z,28.07
2019-03-19T03:57:52.539Z,27.90
2019-03-19T04:00:28.332Z,27.43
2019-03-19T04:03:03.236Z,28.03
2019-03-19T04:05:38.063Z,28.73
2019-03-19T04:08:12.935Z,29.00
2019-03-19T04:10:47.691Z,29.27
2019-03-19T04:13:22.537Z,29.67
2019-03-19T04:15:57.401Z,29.47
2019-03-19T04:18:32.304Z,30.07
2019-03-19T04:21:07.052Z,31.10
2019-03-19T04:23:41.883Z,30.10
2019-03-19T04:26:16.616Z,29.73
2019-03-19T04:28:52.690Z,29.17
2019-03-19T04:31:27.459Z,28.90
2019-03-19T04:34:08.044Z,28.43
2019-03-19T04:36:42.791Z,27.10
2019-03-19T04:39:17.621Z,28.17
2019-03-19T04:41:52.394Z,29.53
2019-03-19T04:44:27.281Z,29.37
2019-03-19T04:47:02.025Z,29.77
2019-03-19T04:49:36.762Z,29.70
2019-03-19T04:52:12.488Z,30.70
2019-03-19T04:54:47.242Z,29.77
2019-03-19T04:57:26.735Z,28.13
2019-03-19T04:59:59.095Z,28.30
2019-03-19T05:02:34.324Z,28.87
2019-03-19T05:05:09.607Z,27.77
2019-03-19T05:07:44.592Z,27.90
2019-03-19T05:10:19.500Z,28.13
2019-03-19T05:12:54.319Z,27.80
2019-03-19T05:15:32.331Z,27.50
2019-03-19T05:18:07.208Z,27.63
2019-03-19T05:20:42.791Z,27.47
2019-03-19T05:23:17.683Z,27.73
2019-03-19T05:25:54.927Z,28.43
2019-03-19T05:28:30.174Z,28.17
2019-03-19T05:31:07.791Z,28.43
2019-03-19T05:33:42.787Z,28.70
2019-03-19T05:36:19.732Z,28.57
2019-03-19T05:38:54.535Z,28.87
2019-03-19T05:41:29.296Z,29.10
2019-03-19T05:44:04.203Z,30.13
2019-03-19T05:46:39.067Z,28.87
2019-03-19T05:49:13.833Z,27.27
2019-03-19T05:51:49.631Z,27.67
2019-03-19T05:54:26.018Z,28.00
2019-03-19T05:57:00.856Z,28.47
2019-03-19T05:59:35.600Z,28.13
2019-03-19T06:02:10.448Z,28.03
2019-03-19T06:04:45.283Z,27.13
2019-03-19T06:07:20.124Z,27.10
2019-03-19T06:09:54.872Z,27.80
2019-03-19T06:12:29.681Z,27.47
2019-03-19T06:15:05.494Z,27.17
2019-03-19T06:17:40.301Z,27.77
2019-03-19T06:20:15.160Z,27.37
2019-03-19T06:22:49.905Z,28.13
2019-03-19T06:25:24.761Z,27.93
2019-03-19T06:28:00.865Z,28.00
2019-03-19T06:30:36.096Z,30.73
2019-03-19T06:33:10.896Z,27.97
2019-03-19T06:35:45.724Z,28.43
2019-03-19T06:38:20.531Z,28.80
2019-03-19T06:40:55.359Z,29.20
2019-03-19T06:43:30.107Z,28.63
2019-03-19T06:46:05.084Z,28.27
2019-03-19T06:48:39.874Z,28.37
2019-03-19T06:51:14.714Z,28.80
2019-03-19T06:53:49.476Z,29.23
2019-03-19T06:56:24.216Z,28.30
2019-03-19T06:59:00.101Z,28.27
2019-03-19T07:01:34.835Z,28.83
2019-03-19T07:04:09.660Z,29.37
2019-03-19T07:06:44.468Z,29.07
2019-03-19T07:09:19.220Z,29.17
2019-03-19T07:11:53.962Z,30.00
2019-03-19T07:14:28.727Z,29.60
2019-03-19T07:17:03.578Z,30.00
2019-03-19T07:19:38.339Z,29.63
2019-03-19T07:22:13.072Z,29.70
2019-03-19T07:24:48.250Z,29.77
2019-03-19T07:27:25.092Z,29.73
2019-03-19T07:29:59.940Z,29.87
2019-03-19T07:32:34.743Z,30.00
2019-03-19T07:35:09.675Z,30.10
2019-03-19T07:37:44.635Z,29.73
2019-03-19T07:40:19.468Z,29.57
2019-03-19T07:42:54.355Z,29.93
2019-03-19T07:45:29.287Z,29.07
2019-03-19T07:48:04.173Z,29.17
2019-03-19T07:50:38.991Z,29.43
2019-03-19T07:53:13.808Z,29.43
2019-03-19T07:55:48.658Z,28.80
2019-03-19T07:58:32.708Z,29.20
2019-03-19T08:01:00.059Z,29.57
2019-03-19T08:03:34.784Z,29.57
2019-03-19T08:06:09.608Z,29.37
2019-03-19T08:08:47.603Z,29.07
2019-03-19T08:11:22.450Z,28.77
2019-03-19T08:13:57.240Z,28.93
2019-03-19T08:16:32.001Z,29.87
2019-03-19T08:19:08.755Z,29.83
2019-03-19T08:21:43.512Z,30.00
2019-03-19T08:24:18.336Z,30.80
2019-03-19T08:26:53.095Z,30.37
2019-03-19T08:29:27.855Z,28.90
2019-03-19T08:32:02.659Z,28.97
2019-03-19T08:34:37.433Z,29.30
2019-03-19T08:37:12.259Z,29.87
2019-03-19T08:39:47.058Z,29.20
2019-03-19T08:42:21.844Z,28.93
2019-03-19T08:44:56.587Z,28.73
2019-03-19T08:47:31.464Z,29.60
2019-03-19T08:50:06.642Z,29.93
2019-03-19T08:52:41.388Z,30.07
2019-03-19T08:55:16.352Z,29.27
2019-03-19T08:57:51.229Z,29.63
2019-03-19T09:00:26.211Z,29.37
2019-03-19T09:03:02.101Z,29.77
2019-03-19T09:05:36.899Z,29.97
2019-03-19T09:08:14.736Z,30.60
2019-03-19T09:10:49.463Z,30.17
2019-03-19T09:13:24.224Z,29.60
2019-03-19T09:15:58.979Z,29.93
2019-03-19T09:18:33.808Z,29.93
2019-03-19T09:21:08.612Z,31.07
2019-03-19T09:23:43.441Z,30.63
2019-03-19T09:26:18.321Z,30.67
2019-03-19T09:28:53.179Z,30.63
2019-03-19T09:31:28.005Z,31.13
2019-03-19T09:34:05.095Z,30.67
2019-03-19T09:36:39.921Z,30.40
2019-03-19T09:39:14.723Z,30.47
2019-03-19T09:41:50.512Z,30.63
2019-03-19T09:44:27.276Z,30.20
2019-03-19T09:47:03.183Z,30.93
2019-03-19T09:49:38.012Z,31.73
2019-03-19T09:52:12.887Z,31.37
2019-03-19T09:54:47.620Z,31.87
2019-03-19T09:57:22.392Z,31.73
2019-03-19T09:59:57.199Z,31.73
2019-03-19T10:02:33.951Z,31.47
2019-03-19T10:05:08.947Z,32.10
2019-03-19T10:07:43.943Z,31.70
2019-03-19T10:10:18.780Z,31.70
2019-03-19T10:12:53.683Z,30.63
2019-03-19T10:15:28.525Z,31.90
2019-03-19T10:18:03.320Z,32.13
2019-03-19T10:20:38.225Z,31.90
2019-03-19T10:23:13.043Z,32.03
2019-03-19T10:25:47.872Z,32.23
2019-03-19T10:28:22.621Z,32.27
2019-03-19T10:30:57.452Z,31.70
2019-03-19T10:33:32.272Z,32.13
2019-03-19T10:36:07.159Z,33.57
2019-03-19T10:38:41.979Z,31.80
2019-03-19T10:41:16.711Z,31.67
2019-03-19T10:43:51.479Z,31.87
2019-03-19T10:46:26.357Z,32.17
2019-03-19T10:49:01.444Z,32.83
2019-03-19T10:51:37.445Z,31.90
2019-03-19T10:54:12.203Z,30.83
2019-03-19T10:56:47.012Z,31.93
2019-03-19T10:59:21.936Z,31.77
2019-03-19T11:01:56.667Z,31.27
2019-03-19T11:04:31.495Z,31.40
2019-03-19T11:07:06.392Z,31.40
2019-03-19T11:09:42.470Z,31.53
2019-03-19T11:12:17.363Z,32.10
2019-03-19T11:14:52.115Z,31.43
2019-03-19T11:17:28.502Z,31.53
2019-03-19T11:20:04.567Z,30.63
2019-03-19T11:22:39.482Z,31.00
2019-03-19T11:25:15.044Z,31.20
2019-03-19T11:27:49.956Z,31.97
2019-03-19T11:30:25.839Z,31.90
2019-03-19T11:33:00.843Z,31.10
2019-03-19T11:35:38.825Z,31.33
2019-03-19T11:38:13.672Z,31.27
2019-03-19T11:40:48.479Z,31.17
2019-03-19T11:43:23.400Z,30.10
2019-03-19T11:45:58.628Z,30.47
2019-03-19T11:48:33.452Z,30.43
2019-03-19T11:51:08.336Z,30.73
2019-03-19T11:53:43.087Z,31.40
2019-03-19T11:56:18.003Z,31.70
2019-03-19T11:58:52.768Z,31.17
2019-03-19T12:01:27.752Z,31.27
2019-03-19T12:04:02.593Z,30.70
2019-03-19T12:06:37.350Z,30.10
2019-03-19T12:09:12.191Z,30.47
2019-03-19T12:11:47.018Z,30.17
2019-03-19T12:14:21.941Z,30.07
2019-03-19T12:16:56.695Z,29.97
2019-03-19T12:19:31.481Z,29.90
2019-03-19T12:22:06.382Z,29.73
2019-03-19T12:24:41.154Z,29.50
2019-03-19T12:27:16.007Z,29.57
2019-03-19T12:29:50.868Z,29.83
2019-03-19T12:32:25.701Z,30.33
2019-03-19T12:35:01.724Z,29.80
2019-03-19T12:37:43.033Z,30.70
2019-03-19T12:40:17.931Z,30.50
2019-03-19T12:42:52.851Z,30.87
2019-03-19T12:45:27.600Z,29.70
2019-03-19T12:48:02.437Z,30.40
2019-03-19T12:50:43.150Z,30.80
2019-03-19T12:53:17.923Z,30.47
2019-03-19T12:55:53.643Z,28.13
2019-03-19T12:58:30.736Z,30.30
2019-03-19T13:01:05.749Z,30.90
2019-03-19T13:03:40.587Z,30.03
2019-03-19T13:06:15.325Z,30.13
2019-03-19T13:08:53.236Z,30.23
2019-03-19T13:11:27.979Z,29.83
2019-03-19T13:14:02.903Z,29.90
2019-03-19T13:16:37.820Z,29.97
2019-03-19T13:19:12.595Z,27.80
2019-03-19T13:21:47.410Z,29.40
2019-03-19T13:24:23.216Z,29.97
2019-03-19T13:26:57.977Z,29.47
2019-03-19T13:29:33.903Z,30.13
2019-03-19T13:32:08.740Z,30.23
2019-03-19T13:34:43.592Z,30.23
2019-03-19T13:37:18.504Z,30.00
2019-03-19T13:39:53.461Z,29.43
2019-03-19T13:42:28.235Z,28.27
2019-03-19T13:45:03.080Z,28.93
2019-03-19T13:47:37.816Z,29.43
2019-03-19T13:50:13.392Z,29.57
2019-03-19T13:52:48.218Z,29.33
2019-03-19T13:55:23.160Z,29.03
2019-03-19T13:57:57.979Z,29.37
2019-03-19T14:00:32.808Z,30.33
2019-03-19T14:03:08.602Z,30.23
2019-03-19T14:05:43.373Z,29.20
2019-03-19T14:08:18.215Z,28.50
2019-03-19T14:10:54.315Z,28.47
2019-03-19T14:13:29.364Z,29.20
2019-03-19T14:16:04.239Z,29.00
2019-03-19T14:18:38.989Z,29.03
2019-03-19T14:21:13.824Z,30.10
2019-03-19T14:23:48.584Z,30.20
2019-03-19T14:26:23.353Z,31.20
2019-03-19T14:28:58.088Z,30.17
2019-03-19T14:31:32.948Z,31.37
2019-03-19T14:34:07.798Z,31.10
2019-03-19T14:36:42.551Z,28.87
2019-03-19T14:39:17.291Z,28.43
2019-03-19T14:41:52.127Z,29.37
2019-03-19T14:44:26.952Z,29.20
2019-03-19T14:47:01.710Z,28.53
2019-03-19T14:49:46.297Z,29.00
2019-03-19T14:52:12.971Z,29.33
2019-03-19T14:54:47.719Z,29.90
2019-03-19T14:57:22.572Z,30.30
2019-03-19T14:59:57.322Z,28.60
2019-03-19T15:02:32.155Z,29.00
2019-03-19T15:05:07.269Z,29.07
2019-03-19T15:07:42.170Z,28.37
2019-03-19T15:10:17.091Z,29.20
2019-03-19T15:12:51.915Z,28.90
2019-03-19T15:15:26.759Z,28.60
2019-03-19T15:18:03.638Z,28.73
2019-03-19T15:20:38.537Z,28.50
2019-03-19T15:23:13.351Z,28.87
2019-03-19T15:25:48.259Z,29.13
2019-03-19T15:28:23.168Z,29.30
2019-03-19T15:30:57.953Z,29.20
2019-03-19T15:33:33.912Z,28.63
2019-03-19T15:36:08.881Z,28.47
2019-03-19T15:38:43.671Z,28.93
2019-03-19T15:41:18.490Z,29.10
2019-03-19T15:43:53.479Z,29.33
2019-03-19T15:46:29.196Z,28.53
2019-03-19T15:49:04.096Z,28.17
2019-03-19T15:51:38.942Z,28.43
2019-03-19T15:54:13.675Z,28.70
2019-03-19T15:56:48.515Z,28.17
2019-03-19T15:59:23.268Z,28.93
2019-03-19T16:01:58.096Z,28.77
2019-03-19T16:04:32.919Z,29.17
2019-03-19T16:07:07.772Z,28.57
2019-03-19T16:09:42.601Z,28.80
2019-03-19T16:12:17.370Z,28.70
2019-03-19T16:14:52.127Z,28.80
2019-03-19T16:17:26.975Z,28.47
2019-03-19T16:20:01.843Z,27.90
2019-03-19T16:22:36.660Z,29.43
2019-03-19T16:25:12.279Z,28.67
2019-03-19T16:27:47.303Z,29.20
2019-03-19T16:30:22.260Z,29.33
2019-03-19T16:32:57.012Z,28.50
2019-03-19T16:35:31.864Z,28.57
2019-03-19T16:38:06.773Z,28.27
2019-03-19T16:40:41.692Z,29.07
2019-03-19T16:43:16.605Z,28.77
2019-03-19T16:45:51.371Z,28.80
2019-03-19T16:48:26.183Z,28.20
2019-03-19T16:51:01.063Z,28.17
2019-03-19T16:53:35.811Z,28.43
2019-03-19T16:56:10.720Z,27.77
2019-03-19T16:58:45.542Z,28.50
2019-03-19T17:01:21.452Z,28.40
2019-03-19T17:03:56.263Z,28.10
2019-03-19T17:06:31.040Z,28.50
2019-03-19T17:09:07.812Z,27.93
2019-03-19T17:11:42.699Z,28.37
2019-03-19T17:14:17.463Z,28.87
2019-03-19T17:16:53.324Z,27.83
2019-03-19T17:19:28.284Z,27.97
2019-03-19T17:22:05.231Z,28.27
2019-03-19T17:24:40.048Z,27.87
2019-03-19T17:27:14.804Z,27.97
2019-03-19T17:29:49.658Z,27.70
2019-03-19T17:32:24.559Z,28.03
2019-03-19T17:34:59.296Z,28.43
2019-03-19T17:37:34.059Z,28.27
2019-03-19T17:40:09.627Z,28.53
2019-03-19T17:42:44.661Z,28.73
2019-03-19T17:45:19.587Z,28.77
2019-03-19T17:47:54.428Z,28.63
2019-03-19T17:50:29.216Z,28.87
2019-03-19T17:53:07.195Z,28.87
2019-03-19T17:55:42.023Z,29.37
2019-03-19T17:58:16.783Z,28.97
2019-03-19T18:00:51.837Z,30.00
2019-03-19T18:03:26.593Z,28.90
2019-03-19T18:06:01.339Z,28.87
2019-03-19T18:08:36.287Z,28.63
2019-03-19T18:11:11.139Z,30.07
2019-03-19T18:13:46.051Z,31.00
2019-03-19T18:16:20.871Z,28.33
2019-03-19T18:18:55.635Z,28.20
2019-03-19T18:21:30.392Z,28.50
2019-03-19T18:24:05.283Z,28.73
2019-03-19T18:26:40.140Z,28.90
2019-03-19T18:29:15.175Z,29.33
2019-03-19T18:31:51.088Z,29.80
2019-03-19T18:34:25.851Z,29.23
2019-03-19T18:37:00.674Z,29.00
2019-03-19T18:39:35.677Z,29.27
2019-03-19T18:42:10.570Z,31.97
2019-03-19T18:44:45.402Z,29.93
2019-03-19T18:47:20.391Z,28.53
2019-03-19T18:49:55.179Z,28.53
2019-03-19T18:52:30.015Z,29.13
2019-03-19T18:55:05.467Z,28.90
2019-03-19T18:57:41.579Z,29.47
2019-03-19T19:00:17.884Z,29.97
2019-03-19T19:02:52.772Z,31.07
2019-03-19T19:05:27.599Z,30.10
2019-03-19T19:08:02.506Z,30.27
2019-03-19T19:10:37.527Z,30.33
2019-03-19T19:13:12.368Z,30.13
2019-03-19T19:15:48.204Z,31.63
2019-03-19T19:18:22.947Z,31.60
2019-03-19T19:20:57.698Z,35.47
2019-03-19T19:23:32.511Z,34.87
2019-03-19T19:26:07.277Z,35.13
2019-03-19T19:28:42.291Z,34.37
2019-03-19T19:31:17.203Z,34.33
2019-03-19T19:33:52.035Z,33.47
2019-03-19T19:36:26.895Z,33.20
2019-03-19T19:39:01.763Z,31.73
2019-03-19T19:41:37.944Z,30.87
2019-03-19T19:44:12.689Z,31.90
2019-03-19T19:47:13.557Z,33.53
2019-03-19T19:50:07.867Z,32.03
2019-03-19T19:52:44.764Z,31.77
2019-03-19T19:55:21.183Z,30.57
2019-03-19T19:57:56.590Z,32.07
2019-03-19T20:00:31.726Z,31.33
2019-03-19T20:03:12.791Z,31.60
2019-03-19T20:05:47.807Z,30.93
2019-03-19T20:08:22.587Z,29.87
2019-03-19T20:11:06.505Z,32.20
2019-03-19T20:13:43.515Z,32.60
2019-03-19T20:16:18.401Z,33.57
2019-03-19T20:18:53.159Z,31.53
2019-03-19T20:21:27.903Z,32.97
2019-03-19T20:24:02.811Z,34.47
2019-03-19T20:26:37.555Z,34.43
2019-03-19T20:29:12.383Z,37.07
2019-03-19T20:31:47.304Z,33.07
2019-03-19T20:34:22.163Z,34.10
2019-03-19T20:36:56.955Z,33.73
2019-03-19T20:39:31.711Z,35.67
2019-03-19T20:42:06.592Z,34.93
2019-03-19T20:44:41.475Z,33.50
2019-03-19T20:47:16.252Z,31.67
2019-03-19T20:49:52.128Z,31.63
2019-03-19T20:52:26.862Z,30.73
2019-03-19T20:55:01.703Z,30.50
2019-03-19T20:57:36.659Z,30.47
2019-03-19T21:00:13.851Z,29.83
2019-03-19T21:02:48.655Z,29.43
2019-03-19T21:05:23.597Z,29.83
2019-03-19T21:07:59.592Z,29.97
2019-03-19T21:10:34.482Z,29.20
2019-03-19T21:13:09.287Z,29.00
2019-03-19T21:15:44.119Z,29.00
2019-03-19T21:18:18.951Z,28.57
2019-03-19T21:20:53.777Z,28.33
2019-03-19T21:23:28.532Z,28.17
2019-03-19T21:26:03.371Z,28.23
2019-03-19T21:28:38.219Z,28.23
2019-03-19T21:31:12.973Z,28.60
2019-03-19T21:33:51.346Z,28.27
2019-03-19T21:36:24.883Z,27.73
2019-03-19T21:38:59.992Z,27.83
2019-03-19T21:41:36.393Z,27.97
2019-03-19T21:44:11.411Z,27.83
2019-03-19T21:46:46.340Z,27.33
2019-03-19T21:49:21.241Z,28.07
2019-03-19T21:51:56.015Z,28.40
2019-03-19T21:54:30.839Z,28.17
2019-03-19T21:57:05.760Z,28.73
2019-03-19T21:59:41.157Z,30.00
2019-03-19T22:02:15.947Z,30.20
2019-03-19T22:04:50.691Z,31.20
2019-03-19T22:07:25.431Z,29.10
2019-03-19T22:10:03.950Z,29.73
2019-03-19T22:12:59.765Z,29.80
2019-03-19T22:15:34.716Z,28.33
2019-03-19T22:18:09.529Z,28.47
2019-03-19T22:20:44.275Z,28.47
2019-03-19T22:23:19.089Z,28.60
2019-03-19T22:25:53.935Z,28.40
2019-03-19T22:28:28.768Z,28.43
2019-03-19T22:31:09.456Z,29.60
2019-03-19T22:33:44.199Z,29.10
2019-03-19T22:36:19.071Z,28.73
2019-03-19T22:38:53.847Z,29.07
2019-03-19T22:41:28.867Z,28.43
2019-03-19T22:44:03.695Z,28.90
2019-03-19T22:46:38.559Z,28.10
2019-03-19T22:49:13.507Z,28.63
2019-03-19T22:51:48.344Z,28.00
2019-03-19T22:54:23.175Z,27.70
2019-03-19T22:56:59.035Z,27.97
2019-03-19T22:59:33.771Z,28.50
2019-03-19T23:02:09.723Z,28.17
2019-03-19T23:04:44.463Z,28.03
2019-03-19T23:07:19.291Z,28.47
2019-03-19T23:09:54.028Z,28.50
2019-03-19T23:12:30.479Z,28.43
2019-03-19T23:15:09.615Z,28.47
2019-03-19T23:17:44.495Z,29.03
2019-03-19T23:20:19.451Z,29.07
2019-03-19T23:22:54.472Z,28.83
2019-03-19T23:25:29.378Z,28.93
2019-03-19T23:28:04.248Z,28.10
2019-03-19T23:30:39.131Z,28.57
2019-03-19T23:33:13.939Z,28.90
2019-03-19T23:35:48.764Z,28.77
2019-03-19T23:38:23.595Z,28.67
2019-03-19T23:40:58.474Z,28.83
2019-03-19T23:43:33.281Z,28.50
2019-03-19T23:46:08.243Z,27.77
2019-03-19T23:48:42.975Z,27.93
2019-03-19T23:51:17.795Z,28.30
2019-03-19T23:53:52.706Z,28.13
2019-03-19T23:56:27.604Z,28.13
2019-03-19T23:59:05.657Z,27.47
